Time;durP1;ratioP1;P1;durP2;ratioP2;P2;SDS_P1;SDS_P2;PMS_P1;PMS_P2;Temp;Humidity;BMP_temperature;BMP_pressure;BME280_temperature;BME280_humidity;BME280_pressure;Samples;Min_cycle;Max_cycle;Signal;HPM_P1;HPM_P2
2023/12/08 00:00:46;;;;;;;;;;;13.00;75.20;;;;;;4937947;29;19918;-79
2023/12/08 00:03:12;;;;;;;;;;;13.00;75.10;;;;;;4938187;29;19913;-79
2023/12/08 00:05:38;;;;;;;;;;;12.90;75.10;;;;;;4954760;29;19906;-79
2023/12/08 00:08:03;;;;;;;;;;;12.90;75.10;;;;;;4938013;29;19906;-79
2023/12/08 00:10:29;;;;;;;;;;;13.00;75.20;;;;;;4937578;29;20004;-79
2023/12/08 00:12:54;;;;;;;;;;;13.00;75.20;;;;;;4937790;29;20268;-79
2023/12/08 00:15:20;;;;;;;;;;;12.90;75.10;;;;;;4938194;28;19915;-79
2023/12/08 00:17:45;;;;;;;;;;;12.90;75.10;;;;;;4941554;29;19914;-79
2023/12/08 00:20:11;;;;;;;;;;;13.00;75.20;;;;;;4941275;29;19914;-79
2023/12/08 00:22:36;;;;;;;;;;;12.90;75.10;;;;;;4941420;29;19929;-79
2023/12/08 00:25:02;;;;;;;;;;;12.90;75.20;;;;;;4942057;29;20287;-79
2023/12/08 00:27:27;;;;;;;;;;;13.00;75.20;;;;;;4941242;29;19910;-78
2023/12/08 00:29:53;;;;;;;;;;;12.90;75.20;;;;;;4941070;29;20562;-78
2023/12/08 00:32:18;;;;;;;;;;;13.00;75.20;;;;;;4958491;29;19906;-79
2023/12/08 00:34:46;;;;;;;;;;;12.90;75.20;;;;;;4941169;29;19907;-79
2023/12/08 00:37:11;;;;;;;;;;;12.90;75.20;;;;;;4941164;29;19917;-79
2023/12/08 00:39:37;;;;;;;;;;;12.90;75.20;;;;;;4940914;29;19919;-76
2023/12/08 00:42:03;;;;;;;;;;;13.00;75.20;;;;;;4941110;29;20061;-79
2023/12/08 00:44:28;;;;;;;;;;;12.90;75.10;;;;;;4941034;29;19907;-78
2023/12/08 00:46:53;;;;;;;;;;;13.00;75.20;;;;;;4940782;29;19910;-79
2023/12/08 00:49:19;;;;;;;;;;;12.90;75.10;;;;;;4940702;29;20359;-79
2023/12/08 00:51:44;;;;;;;;;;;12.90;75.10;;;;;;4940785;29;19911;-79
2023/12/08 00:54:10;;;;;;;;;;;12.90;75.10;;;;;;4940814;29;20382;-79
2023/12/08 00:56:35;;;;;;;;;;;12.90;75.10;;;;;;4940720;29;19910;-77
2023/12/08 00:59:01;;;;;;;;;;;12.90;75.10;;;;;;4958046;29;20344;-79
2023/12/08 01:01:26;;;;;;;;;;;12.90;75.10;;;;;;4956749;29;20375;-79
2023/12/08 01:03:51;;;;;;;;;;;12.90;75.20;;;;;;4940584;29;19910;-79
2023/12/08 01:06:17;;;;;;;;;;;12.90;75.20;;;;;;4940259;29;20001;-79
2023/12/08 01:08:42;;;;;;;;;;;12.90;75.20;;;;;;4957650;29;19969;-78
2023/12/08 01:11:08;;;;;;;;;;;12.90;75.20;;;;;;4940380;29;19906;-79
2023/12/08 01:13:33;;;;;;;;;;;12.90;75.20;;;;;;4940344;29;19968;-78
2023/12/08 01:15:59;;;;;;;;;;;12.90;75.10;;;;;;4957708;29;19910;-78
2023/12/08 01:18:24;;;;;;;;;;;12.90;75.20;;;;;;4940025;29;19910;-79
2023/12/08 01:20:51;;;;;;;;;;;12.80;75.10;;;;;;4957243;29;19907;-79
2023/12/08 01:23:17;;;;;;;;;;;12.90;75.20;;;;;;4940299;29;20348;-79
2023/12/08 01:25:42;;;;;;;;;;;12.90;75.20;;;;;;4940713;29;19942;-78
2023/12/08 01:28:08;;;;;;;;;;;12.90;75.20;;;;;;4957057;28;19907;-78
2023/12/08 01:30:33;;;;;;;;;;;12.90;75.20;;;;;;4940208;29;19917;-78
2023/12/08 01:32:59;;;;;;;;;;;12.90;75.20;;;;;;4940309;29;19911;-79
2023/12/08 01:35:24;;;;;;;;;;;12.90;75.20;;;;;;4940057;29;19914;-79
2023/12/08 01:37:50;;;;;;;;;;;12.90;75.20;;;;;;4957666;29;19907;-78
2023/12/08 01:40:15;;;;;;;;;;;12.90;75.30;;;;;;4939437;29;20363;-76
2023/12/08 01:42:44;;;;;;;;;;;12.90;75.20;;;;;;4939875;29;19906;-78
2023/12/08 01:45:09;;;;;;;;;;;12.90;75.20;;;;;;4940122;29;19906;-76
2023/12/08 01:47:35;;;;;;;;;;;12.90;75.20;;;;;;4940050;29;19961;-78
2023/12/08 01:50:01;;;;;;;;;;;12.90;75.20;;;;;;4939541;29;20009;-77
2023/12/08 01:52:27;;;;;;;;;;;12.90;75.20;;;;;;4956813;29;19906;-77
2023/12/08 01:54:58;;;;;;;;;;;12.90;75.20;;;;;;4939892;29;19929;-77
2023/12/08 01:57:24;;;;;;;;;;;12.90;75.20;;;;;;4939497;29;20026;-77
2023/12/08 01:59:50;;;;;;;;;;;12.90;75.30;;;;;;4939684;29;20001;-78
2023/12/08 02:02:16;;;;;;;;;;;12.90;75.30;;;;;;4939575;29;19956;-78
2023/12/08 02:04:43;;;;;;;;;;;12.90;75.30;;;;;;4939325;29;19906;-77
2023/12/08 02:07:09;;;;;;;;;;;12.90;75.30;;;;;;4939359;29;19910;-78
2023/12/08 02:09:34;;;;;;;;;;;12.90;75.30;;;;;;4943097;28;19974;-77
2023/12/08 02:12:00;;;;;;;;;;;12.90;75.30;;;;;;4941402;29;19914;-78
2023/12/08 02:14:26;;;;;;;;;;;12.90;75.30;;;;;;4956823;29;19954;-78
2023/12/08 02:16:59;;;;;;;;;;;12.90;75.40;;;;;;4938977;28;19910;-78
2023/12/08 02:19:25;;;;;;;;;;;12.90;75.40;;;;;;4939276;29;20355;-78
2023/12/08 02:21:51;;;;;;;;;;;12.90;75.40;;;;;;4939023;29;19946;-78
2023/12/08 02:24:19;;;;;;;;;;;12.90;75.90;;;;;;4939158;29;19910;-78
2023/12/08 02:26:45;;;;;;;;;;;12.90;75.50;;;;;;4939042;29;20314;-78
2023/12/08 02:29:11;;;;;;;;;;;12.90;75.50;;;;;;4939087;29;20012;-79
2023/12/08 02:31:40;;;;;;;;;;;12.90;75.60;;;;;;4939014;29;19957;-78
2023/12/08 02:34:06;;;;;;;;;;;12.90;75.60;;;;;;4938964;29;20001;-77
2023/12/08 02:36:33;;;;;;;;;;;12.90;75.60;;;;;;4938740;29;20434;-78
2023/12/08 02:39:00;;;;;;;;;;;12.90;75.60;;;;;;4938180;29;20066;-79
2023/12/08 02:41:25;;;;;;;;;;;12.90;76.20;;;;;;4938909;29;19910;-79
2023/12/08 02:43:51;;;;;;;;;;;12.80;75.70;;;;;;4939215;29;20706;-78
2023/12/08 02:46:16;;;;;;;;;;;12.90;75.70;;;;;;4939407;29;19914;-78
2023/12/08 02:48:42;;;;;;;;;;;12.90;75.60;;;;;;4938713;29;19937;-77
2023/12/08 02:51:07;;;;;;;;;;;12.90;75.60;;;;;;4938799;29;20427;-77
2023/12/08 02:53:33;;;;;;;;;;;12.90;75.60;;;;;;4938960;29;20004;-77
2023/12/08 02:55:58;;;;;;;;;;;12.90;75.60;;;;;;4938602;29;19917;-80
2023/12/08 02:58:24;;;;;;;;;;;12.80;75.60;;;;;;4938282;29;19907;-77
2023/12/08 03:00:49;;;;;;;;;;;12.90;75.60;;;;;;4938411;29;19976;-77
2023/12/08 03:03:14;;;;;;;;;;;12.90;75.60;;;;;;4938578;29;19910;-79
2023/12/08 03:05:40;;;;;;;;;;;12.90;75.60;;;;;;4938769;29;20378;-78
2023/12/08 03:08:05;;;;;;;;;;;12.90;75.60;;;;;;4938271;29;19906;-77
2023/12/08 03:10:31;;;;;;;;;;;12.90;75.60;;;;;;4955796;29;19906;-77
2023/12/08 03:12:56;;;;;;;;;;;12.90;75.60;;;;;;4938524;29;19907;-79
2023/12/08 03:15:23;;;;;;;;;;;12.80;75.60;;;;;;4938343;29;20282;-80
2023/12/08 03:17:48;;;;;;;;;;;12.90;75.70;;;;;;4938736;28;19910;-80
2023/12/08 03:20:13;;;;;;;;;;;12.90;75.70;;;;;;4938224;29;20009;-78
2023/12/08 03:22:39;;;;;;;;;;;12.90;75.70;;;;;;4938302;29;19913;-77
2023/12/08 03:25:04;;;;;;;;;;;12.80;76.20;;;;;;4955374;29;20313;-78
2023/12/08 03:27:30;;;;;;;;;;;12.80;75.60;;;;;;4938337;29;19954;-80
2023/12/08 03:29:55;;;;;;;;;;;12.90;75.70;;;;;;4938434;29;19930;-79
2023/12/08 03:32:21;;;;;;;;;;;12.90;75.70;;;;;;4955615;29;19937;-77
2023/12/08 03:34:46;;;;;;;;;;;12.90;75.70;;;;;;4938223;29;19961;-77
2023/12/08 03:37:11;;;;;;;;;;;12.80;75.60;;;;;;4955190;29;19917;-77
2023/12/08 03:39:37;;;;;;;;;;;12.80;75.60;;;;;;4955044;29;19926;-78
2023/12/08 03:42:02;;;;;;;;;;;12.80;75.60;;;;;;4937922;29;20349;-78
2023/12/08 03:44:28;;;;;;;;;;;12.80;75.60;;;;;;4938208;29;19910;-78
2023/12/08 03:46:53;;;;;;;;;;;12.90;75.70;;;;;;4955608;29;20331;-78
2023/12/08 03:49:19;;;;;;;;;;;12.80;75.60;;;;;;4937743;29;20322;-78
2023/12/08 03:51:44;;;;;;;;;;;12.80;75.60;;;;;;4940618;29;19928;-78
2023/12/08 03:54:09;;;;;;;;;;;12.80;75.60;;;;;;4940810;29;19972;-78
2023/12/08 03:56:35;;;;;;;;;;;12.80;75.60;;;;;;4951979;29;19921;-77
2023/12/08 03:59:00;;;;;;;;;;;12.80;75.60;;;;;;4957255;28;19960;-78
2023/12/08 04:01:26;;;;;;;;;;;12.80;75.60;;;;;;4957625;29;19907;-76
2023/12/08 04:03:51;;;;;;;;;;;12.80;75.60;;;;;;4957744;29;19906;-78
2023/12/08 04:06:17;;;;;;;;;;;12.80;75.60;;;;;;4957456;29;20435;-78
2023/12/08 04:08:42;;;;;;;;;;;12.80;75.60;;;;;;4956957;29;19978;-78
2023/12/08 04:11:07;;;;;;;;;;;12.80;75.60;;;;;;4957313;29;20304;-77
2023/12/08 04:13:33;;;;;;;;;;;12.80;75.60;;;;;;4957376;29;19906;-77
2023/12/08 04:15:58;;;;;;;;;;;12.80;75.60;;;;;;4957054;29;19911;-77
2023/12/08 04:18:24;;;;;;;;;;;12.80;75.60;;;;;;4957103;29;19906;-78
2023/12/08 04:20:49;;;;;;;;;;;12.80;75.70;;;;;;4957144;29;20298;-78
2023/12/08 04:23:15;;;;;;;;;;;12.70;75.60;;;;;;4957303;29;20386;-77
2023/12/08 04:25:41;;;;;;;;;;;12.70;75.60;;;;;;4957379;29;19907;-78
2023/12/08 04:28:06;;;;;;;;;;;12.80;75.60;;;;;;4957115;29;19913;-77
2023/12/08 04:30:31;;;;;;;;;;;12.80;75.60;;;;;;4956723;29;19906;-77
2023/12/08 04:32:57;;;;;;;;;;;12.80;75.60;;;;;;4957422;29;19910;-76
2023/12/08 04:35:23;;;;;;;;;;;12.80;75.60;;;;;;4972783;28;19914;-77
2023/12/08 04:37:50;;;;;;;;;;;12.80;75.70;;;;;;4957127;29;20252;-77
2023/12/08 04:40:15;;;;;;;;;;;12.80;75.60;;;;;;4972653;28;19918;-76
2023/12/08 04:42:41;;;;;;;;;;;12.80;75.60;;;;;;4956850;29;20004;-77
2023/12/08 04:45:07;;;;;;;;;;;12.80;75.60;;;;;;4956722;29;20320;-76
2023/12/08 04:47:33;;;;;;;;;;;12.80;75.60;;;;;;4956943;29;20510;-78
2023/12/08 04:49:59;;;;;;;;;;;12.80;75.60;;;;;;4956690;29;19910;-77
2023/12/08 04:52:24;;;;;;;;;;;12.80;75.50;;;;;;4956606;29;19957;-77
2023/12/08 04:54:49;;;;;;;;;;;12.80;75.60;;;;;;4957933;28;20355;-78
2023/12/08 04:57:15;;;;;;;;;;;12.80;75.60;;;;;;4956591;29;20696;-77
2023/12/08 04:59:40;;;;;;;;;;;12.70;75.50;;;;;;4956436;29;19912;-77
2023/12/08 05:02:06;;;;;;;;;;;12.80;75.50;;;;;;4955534;28;19912;-76
2023/12/08 05:04:31;;;;;;;;;;;12.80;75.50;;;;;;4956666;29;19906;-78
2023/12/08 05:06:56;;;;;;;;;;;12.80;75.50;;;;;;4956772;29;19912;-77
2023/12/08 05:09:22;;;;;;;;;;;12.70;75.40;;;;;;4956220;29;19910;-76
2023/12/08 05:11:47;;;;;;;;;;;12.80;75.40;;;;;;4956011;29;20375;-76
2023/12/08 05:14:13;;;;;;;;;;;12.80;75.50;;;;;;4956879;29;19994;-77
2023/12/08 05:16:39;;;;;;;;;;;12.80;75.50;;;;;;4946888;29;19918;-77
2023/12/08 05:19:04;;;;;;;;;;;12.80;75.50;;;;;;4923749;29;19914;-78
2023/12/08 05:24:05;;;;;;;;;;;12.80;75.50;;;;;;5130275;22;19921;-80
2023/12/08 05:26:31;;;;;;;;;;;12.80;75.60;;;;;;4975557;28;19906;-79
2023/12/08 05:28:56;;;;;;;;;;;12.70;75.60;;;;;;4975371;28;19953;-78
2023/12/08 05:31:22;;;;;;;;;;;12.80;75.60;;;;;;4974009;28;19910;-78
2023/12/08 05:33:47;;;;;;;;;;;12.80;75.60;;;;;;4975548;28;19906;-80
2023/12/08 05:36:13;;;;;;;;;;;12.80;75.60;;;;;;4974941;28;19913;-79
2023/12/08 05:38:38;;;;;;;;;;;12.70;75.60;;;;;;4975458;28;20319;-79
2023/12/08 06:39:40;;;;;;;;;;;12.70;75.80;;;;;;4968097;28;19949;-79
2023/12/08 06:42:31;;;;;;;;;;;12.70;75.80;;;;;;4968701;28;19906;-78
2023/12/08 06:45:08;;;;;;;;;;;12.90;75.90;;;;;;4952742;28;19910;-77
2023/12/08 06:48:04;;;;;;;;;;;12.70;75.80;;;;;;4952936;28;19910;-78
2023/12/08 06:50:31;;;;;;;;;;;12.60;75.70;;;;;;4969457;28;20453;-77
2023/12/08 06:53:05;;;;;;;;;;;12.70;75.80;;;;;;4970213;28;19910;-78
2023/12/08 06:55:40;;;;;;;;;;;13.40;76.20;;;;;;4969944;28;20298;-77
2023/12/08 06:58:11;;;;;;;;;;;12.70;75.80;;;;;;4953105;28;20389;-78
2023/12/08 07:00:40;;;;;;;;;;;12.70;75.80;;;;;;4970384;28;19956;-78
2023/12/08 07:03:50;;;;;;;;;;;12.70;75.80;;;;;;4968949;28;19906;-78
2023/12/08 07:05:56;;;;;;;;;;;13.70;76.50;;;;;;4964615;28;20000;-78
2023/12/08 07:08:27;;;;;;;;;;;12.70;75.90;;;;;;4969288;28;20032;-77
2023/12/08 07:11:37;;;;;;;;;;;12.70;75.90;;;;;;4969931;28;19953;-77
2023/12/08 07:14:13;;;;;;;;;;;12.70;75.90;;;;;;4911094;29;19918;-77
2023/12/08 07:16:50;;;;;;;;;;;12.70;75.90;;;;;;4929166;29;20268;-78
2023/12/08 07:22:32;;;;;;;;;;;12.60;75.90;;;;;;5011710;23;19929;-77
2023/12/08 07:24:58;;;;;;;;;;;12.90;76.10;;;;;;4997931;28;19952;-77
2023/12/08 07:27:23;;;;;;;;;;;12.80;76.00;;;;;;4974824;28;19961;-77
2023/12/08 07:29:54;;;;;;;;;;;12.70;76.00;;;;;;4975091;28;19913;-78
2023/12/08 07:32:27;;;;;;;;;;;12.70;75.90;;;;;;4974660;28;19981;-78
2023/12/08 07:34:55;;;;;;;;;;;13.00;76.10;;;;;;4975248;28;20356;-77
2023/12/08 07:37:23;;;;;;;;;;;12.70;75.90;;;;;;4992718;28;19921;-78
2023/12/08 07:39:49;;;;;;;;;;;14.30;76.90;;;;;;4992848;28;20390;-78
2023/12/08 07:42:26;;;;;;;;;;;12.70;76.00;;;;;;4975308;28;19916;-78
2023/12/08 07:44:52;;;;;;;;;;;12.70;76.00;;;;;;4975370;28;19956;-78
2023/12/08 07:47:18;;;;;;;;;;;12.70;76.00;;;;;;4975513;28;19941;-77
2023/12/08 07:49:49;;;;;;;;;;;12.70;76.00;;;;;;4975230;28;20396;-79
2023/12/08 07:52:17;;;;;;;;;;;13.40;76.30;;;;;;4974471;28;19956;-78
2023/12/08 07:54:49;;;;;;;;;;;12.90;76.00;;;;;;4975549;28;19910;-79
2023/12/08 07:57:14;;;;;;;;;;;12.70;75.90;;;;;;4974690;28;20004;-77
2023/12/08 07:59:40;;;;;;;;;;;12.80;75.90;;;;;;4973142;28;20016;-78
2023/12/08 08:02:05;;;;;;;;;;;12.70;75.90;;;;;;4972895;28;19913;-77
2023/12/08 08:04:31;;;;;;;;;;;12.70;75.90;;;;;;4973361;28;19909;-78
2023/12/08 08:06:56;;;;;;;;;;;12.70;75.90;;;;;;4972815;28;19909;-77
2023/12/08 08:09:22;;;;;;;;;;;12.70;75.80;;;;;;4972803;28;19910;-78
2023/12/08 08:11:47;;;;;;;;;;;12.70;75.80;;;;;;4972838;28;19916;-77
2023/12/08 08:14:13;;;;;;;;;;;12.70;75.80;;;;;;4974346;28;19921;-78
2023/12/08 08:16:38;;;;;;;;;;;12.70;75.80;;;;;;4975206;28;20277;-77
2023/12/08 08:19:04;;;;;;;;;;;12.70;75.80;;;;;;4973159;28;19949;-78
2023/12/08 08:21:29;;;;;;;;;;;12.70;75.70;;;;;;4990572;28;19917;-77
2023/12/08 08:23:55;;;;;;;;;;;12.70;75.70;;;;;;4990539;28;20454;-77
2023/12/08 08:26:20;;;;;;;;;;;12.70;75.80;;;;;;4972943;28;19909;-78
2023/12/08 08:28:46;;;;;;;;;;;12.70;75.80;;;;;;4972638;28;19909;-78
2023/12/08 08:31:12;;;;;;;;;;;12.70;75.80;;;;;;4990641;28;20358;-78
2023/12/08 08:33:37;;;;;;;;;;;12.70;75.80;;;;;;4972629;28;19964;-78
2023/12/08 08:36:05;;;;;;;;;;;12.80;75.80;;;;;;4972854;28;19913;-77
2023/12/08 08:38:31;;;;;;;;;;;12.70;75.70;;;;;;4988696;28;19910;-78
2023/12/08 08:40:56;;;;;;;;;;;12.70;75.70;;;;;;4972488;28;20381;-77
2023/12/08 08:43:22;;;;;;;;;;;12.80;75.70;;;;;;4972536;28;19936;-77
2023/12/08 08:45:47;;;;;;;;;;;12.70;75.60;;;;;;4972542;28;19956;-77
2023/12/08 08:48:13;;;;;;;;;;;12.70;75.60;;;;;;4989950;28;19917;-77
2023/12/08 08:50:38;;;;;;;;;;;12.80;75.60;;;;;;4972246;28;19913;-77
2023/12/08 08:53:03;;;;;;;;;;;12.80;75.60;;;;;;4990268;28;20187;-79
2023/12/08 08:55:29;;;;;;;;;;;12.70;75.60;;;;;;4972820;28;19909;-77
2023/12/08 08:57:55;;;;;;;;;;;12.70;75.60;;;;;;4972716;28;20013;-75
2023/12/08 09:00:21;;;;;;;;;;;12.80;75.60;;;;;;4971822;28;19916;-78
2023/12/08 09:02:51;;;;;;;;;;;12.80;75.60;;;;;;4972226;28;19960;-77
2023/12/08 09:05:17;;;;;;;;;;;12.80;75.60;;;;;;4989181;28;19976;-77
2023/12/08 09:07:43;;;;;;;;;;;12.80;75.60;;;;;;4971951;28;19921;-77
2023/12/08 09:10:08;;;;;;;;;;;12.80;75.60;;;;;;4971695;28;19910;-77
2023/12/08 09:12:34;;;;;;;;;;;12.80;75.60;;;;;;4971638;28;19948;-77
2023/12/08 09:14:59;;;;;;;;;;;12.80;75.60;;;;;;4972181;28;20373;-78
2023/12/08 09:17:25;;;;;;;;;;;12.80;75.60;;;;;;4971561;28;19957;-77
2023/12/08 09:19:51;;;;;;;;;;;12.80;75.60;;;;;;4971070;28;20436;-77
2023/12/08 09:22:16;;;;;;;;;;;12.80;75.60;;;;;;4972291;28;20594;-76
2023/12/08 09:24:41;;;;;;;;;;;12.80;75.60;;;;;;4972023;28;19910;-78
2023/12/08 09:27:07;;;;;;;;;;;12.80;75.60;;;;;;4972246;28;20823;-77
2023/12/08 09:29:32;;;;;;;;;;;12.80;75.60;;;;;;4972027;28;19910;-78
2023/12/08 09:31:58;;;;;;;;;;;12.80;75.60;;;;;;4971721;28;20395;-76
2023/12/08 09:34:23;;;;;;;;;;;12.80;75.60;;;;;;4971506;28;19910;-77
2023/12/08 09:36:48;;;;;;;;;;;12.80;75.60;;;;;;4971850;28;19964;-78
2023/12/08 09:39:14;;;;;;;;;;;12.80;75.60;;;;;;4971527;28;19964;-78
2023/12/08 09:41:40;;;;;;;;;;;12.80;75.60;;;;;;4971804;28;19960;-77
2023/12/08 09:44:14;;;;;;;;;;;12.80;76.00;;;;;;4988799;28;19913;-77
2023/12/08 09:46:45;;;;;;;;;;;12.80;75.50;;;;;;4971680;28;19917;-77
2023/12/08 09:49:31;;;;;;;;;;;12.80;75.50;;;;;;4988477;28;19964;-77
2023/12/08 09:51:56;;;;;;;;;;;12.80;75.50;;;;;;4988562;28;20322;-78
2023/12/08 09:54:23;;;;;;;;;;;12.80;75.50;;;;;;4971776;28;19936;-77
2023/12/08 09:56:52;;;;;;;;;;;12.80;75.50;;;;;;4971362;28;19921;-78
2023/12/08 09:59:21;;;;;;;;;;;12.80;75.50;;;;;;4970705;28;19984;-76
2023/12/08 10:01:47;;;;;;;;;;;12.80;75.50;;;;;;4971848;28;19913;-78
2023/12/08 10:04:12;;;;;;;;;;;12.80;75.50;;;;;;4972244;28;20007;-77
2023/12/08 10:06:38;;;;;;;;;;;12.80;75.40;;;;;;4988584;28;19916;-76
2023/12/08 10:09:04;;;;;;;;;;;12.80;75.50;;;;;;4970810;28;19910;-78
2023/12/08 10:11:30;;;;;;;;;;;12.80;75.50;;;;;;4971585;28;19949;-77
2023/12/08 10:13:56;;;;;;;;;;;12.80;75.50;;;;;;4974963;28;19945;-77
2023/12/08 10:16:22;;;;;;;;;;;12.80;75.50;;;;;;4993051;28;19913;-77
2023/12/08 10:18:48;;;;;;;;;;;12.80;75.60;;;;;;4993165;28;19906;-77
2023/12/08 10:21:15;;;;;;;;;;;12.80;75.60;;;;;;4993127;28;20008;-77
2023/12/08 10:23:41;;;;;;;;;;;12.80;75.60;;;;;;4976314;28;19910;-77
2023/12/08 10:26:08;;;;;;;;;;;12.80;75.60;;;;;;4974005;28;19916;-77
2023/12/08 10:28:34;;;;;;;;;;;12.80;75.60;;;;;;4975151;28;19968;-78
2023/12/08 10:30:59;;;;;;;;;;;12.80;75.60;;;;;;4992746;28;19909;-78
2023/12/08 10:33:25;;;;;;;;;;;12.80;75.60;;;;;;4992378;28;20281;-77
2023/12/08 10:35:51;;;;;;;;;;;12.80;75.60;;;;;;4993283;28;19936;-78
2023/12/08 10:38:17;;;;;;;;;;;12.80;75.50;;;;;;4992221;28;19909;-76
2023/12/08 10:40:47;;;;;;;;;;;12.80;75.60;;;;;;4975937;28;19996;-77
2023/12/08 10:43:28;;;;;;;;;;;12.80;75.60;;;;;;4975616;28;19977;-77
2023/12/08 10:45:53;;;;;;;;;;;12.80;75.50;;;;;;4993529;28;19949;-77
2023/12/08 10:48:22;;;;;;;;;;;12.80;75.70;;;;;;4975696;28;20215;-76
2023/12/08 10:50:48;;;;;;;;;;;12.80;75.30;;;;;;4975917;28;20000;-77
2023/12/08 10:53:14;;;;;;;;;;;12.80;75.30;;;;;;4975969;28;20011;-77
2023/12/08 10:55:40;;;;;;;;;;;12.80;75.30;;;;;;4973297;28;19913;-77
2023/12/08 10:58:07;;;;;;;;;;;12.80;75.30;;;;;;4984444;28;19913;-78
2023/12/08 11:00:33;;;;;;;;;;;12.80;75.30;;;;;;4974453;28;20334;-77
2023/12/08 11:03:01;;;;;;;;;;;12.80;75.30;;;;;;4975470;28;19912;-77
2023/12/08 11:05:32;;;;;;;;;;;12.80;75.30;;;;;;4993068;28;19953;-77
2023/12/08 11:07:58;;;;;;;;;;;12.80;75.30;;;;;;4975653;28;19917;-76
2023/12/08 11:10:25;;;;;;;;;;;12.80;75.30;;;;;;4992587;28;19910;-77
2023/12/08 11:12:56;;;;;;;;;;;12.80;75.30;;;;;;4975607;28;20433;-77
2023/12/08 11:15:22;;;;;;;;;;;12.80;75.20;;;;;;4993010;28;19905;-76
2023/12/08 11:17:52;;;;;;;;;;;12.80;75.30;;;;;;4982575;28;20337;-77
2023/12/08 11:20:17;;;;;;;;;;;12.80;75.30;;;;;;4978677;28;19911;-77
2023/12/08 11:22:45;;;;;;;;;;;12.80;75.30;;;;;;4994754;28;20008;-76
2023/12/08 11:25:14;;;;;;;;;;;12.80;75.30;;;;;;4994999;28;19910;-77
2023/12/08 11:27:43;;;;;;;;;;;12.80;75.30;;;;;;4995167;28;19905;-78
2023/12/08 11:30:18;;;;;;;;;;;12.80;75.30;;;;;;5010434;28;20354;-78
2023/12/08 11:32:47;;;;;;;;;;;12.80;75.30;;;;;;4975222;28;19921;-77
2023/12/08 11:35:14;;;;;;;;;;;12.80;75.30;;;;;;4987238;28;19913;-77
2023/12/08 11:37:40;;;;;;;;;;;12.80;75.30;;;;;;4975474;28;19968;-77
2023/12/08 11:40:10;;;;;;;;;;;12.70;75.30;;;;;;4977372;28;20366;-77
2023/12/08 11:42:36;;;;;;;;;;;12.80;75.30;;;;;;4994898;28;19916;-78
2023/12/08 11:45:01;;;;;;;;;;;12.80;75.40;;;;;;4995117;28;19910;-77
2023/12/08 11:47:28;;;;;;;;;;;12.90;75.40;;;;;;5013087;28;19913;-77
2023/12/08 11:49:55;;;;;;;;;;;12.80;75.40;;;;;;4994336;28;19909;-77
2023/12/08 11:52:30;;;;;;;;;;;12.80;75.40;;;;;;5012310;28;19951;-77
2023/12/08 11:55:24;;;;;;;;;;;12.80;75.40;;;;;;5012588;28;20354;-77
2023/12/08 11:57:58;;;;;;;;;;;12.80;75.40;;;;;;5008240;28;20028;-77
2023/12/08 12:00:24;;;;;;;;;;;12.80;75.40;;;;;;4970141;28;19925;-77
2023/12/08 12:02:50;;;;;;;;;;;12.80;75.40;;;;;;4995136;28;19906;-76
2023/12/08 12:05:15;;;;;;;;;;;12.80;75.40;;;;;;4994700;28;19906;-77
2023/12/08 12:07:42;;;;;;;;;;;12.80;75.40;;;;;;4994898;28;19905;-76
2023/12/08 12:10:10;;;;;;;;;;;12.80;75.40;;;;;;4976297;28;19997;-77
2023/12/08 12:12:36;;;;;;;;;;;12.80;75.40;;;;;;4974602;28;19916;-77
2023/12/08 12:15:03;;;;;;;;;;;12.80;75.40;;;;;;4975794;28;19913;-76
2023/12/08 12:17:29;;;;;;;;;;;12.80;75.40;;;;;;4975833;28;19917;-76
2023/12/08 12:19:55;;;;;;;;;;;12.80;75.40;;;;;;4975268;28;19910;-76
2023/12/08 12:22:21;;;;;;;;;;;12.80;76.00;;;;;;4976814;28;19914;-76
2023/12/08 12:24:47;;;;;;;;;;;12.80;75.50;;;;;;4975895;28;19906;-77
2023/12/08 12:27:12;;;;;;;;;;;12.80;75.50;;;;;;4976422;28;19906;-77
2023/12/08 12:29:38;;;;;;;;;;;12.80;75.50;;;;;;4974447;28;19953;-77
2023/12/08 12:32:05;;;;;;;;;;;12.80;75.60;;;;;;4975242;28;20020;-77
2023/12/08 12:34:31;;;;;;;;;;;12.80;75.60;;;;;;4976523;28;20334;-77
2023/12/08 12:36:56;;;;;;;;;;;12.80;75.60;;;;;;4975133;28;19916;-76
2023/12/08 12:39:23;;;;;;;;;;;12.80;75.60;;;;;;4974142;28;19913;-76
2023/12/08 12:41:48;;;;;;;;;;;12.80;75.60;;;;;;4977758;28;19985;-76
2023/12/08 12:44:14;;;;;;;;;;;12.80;75.60;;;;;;4994902;28;19906;-77
2023/12/08 12:46:40;;;;;;;;;;;12.80;75.60;;;;;;4977767;28;19909;-76
2023/12/08 12:49:06;;;;;;;;;;;12.70;75.60;;;;;;4977662;28;19913;-76
2023/12/08 12:51:35;;;;;;;;;;;12.80;75.60;;;;;;4994305;28;19906;-76
2023/12/08 12:54:01;;;;;;;;;;;12.80;75.70;;;;;;4977643;28;19914;-77
2023/12/08 12:56:26;;;;;;;;;;;12.80;75.70;;;;;;4995280;28;20002;-77
2023/12/08 12:59:02;;;;;;;;;;;12.80;75.70;;;;;;4977708;28;19972;-77
2023/12/08 13:01:28;;;;;;;;;;;12.80;75.70;;;;;;4977898;28;19906;-76
2023/12/08 13:03:54;;;;;;;;;;;12.80;75.70;;;;;;4977873;28;20056;-77
2023/12/08 13:06:27;;;;;;;;;;;12.80;75.70;;;;;;4977848;28;20004;-76
2023/12/08 13:08:53;;;;;;;;;;;12.80;75.70;;;;;;4977504;28;19913;-76
2023/12/08 13:11:18;;;;;;;;;;;12.80;75.70;;;;;;4977741;28;19906;-76
2023/12/08 13:13:44;;;;;;;;;;;12.80;76.20;;;;;;4977521;28;19906;-77
2023/12/08 13:16:10;;;;;;;;;;;12.80;75.70;;;;;;4977667;28;19909;-77
2023/12/08 13:18:42;;;;;;;;;;;12.80;75.70;;;;;;4994832;28;20004;-76
2023/12/08 13:21:08;;;;;;;;;;;12.80;75.70;;;;;;4977416;28;19910;-77
2023/12/08 13:23:33;;;;;;;;;;;12.80;75.70;;;;;;4993966;28;19909;-76
2023/12/08 13:26:00;;;;;;;;;;;12.80;75.70;;;;;;4994786;28;20389;-77
2023/12/08 13:28:25;;;;;;;;;;;12.80;75.80;;;;;;4977297;28;19913;-77
2023/12/08 13:30:51;;;;;;;;;;;12.80;75.80;;;;;;4977062;28;20363;-77
2023/12/08 13:33:16;;;;;;;;;;;12.80;75.80;;;;;;4977099;28;19909;-77
2023/12/08 13:35:41;;;;;;;;;;;12.80;75.80;;;;;;4992014;28;20424;-77
2023/12/08 13:38:07;;;;;;;;;;;12.80;75.80;;;;;;4996416;28;19905;-77
2023/12/08 13:40:32;;;;;;;;;;;12.80;75.90;;;;;;4996593;28;19974;-77
2023/12/08 13:42:58;;;;;;;;;;;12.80;75.80;;;;;;4996306;28;19902;-76
2023/12/08 13:45:23;;;;;;;;;;;12.80;75.80;;;;;;4996602;28;20400;-77
2023/12/08 13:47:49;;;;;;;;;;;12.80;75.90;;;;;;4996540;28;20274;-76
2023/12/08 13:50:14;;;;;;;;;;;12.80;75.90;;;;;;5013926;28;19909;-77
2023/12/08 13:52:39;;;;;;;;;;;12.80;75.90;;;;;;5013735;28;20293;-77
2023/12/08 13:55:05;;;;;;;;;;;12.80;75.90;;;;;;4996122;28;20383;-77
2023/12/08 13:57:30;;;;;;;;;;;12.80;75.90;;;;;;5013900;28;19916;-76
2023/12/08 13:59:56;;;;;;;;;;;12.80;75.90;;;;;;5013675;28;20353;-76
2023/12/08 14:02:21;;;;;;;;;;;12.80;75.90;;;;;;4995945;28;19913;-77
2023/12/08 14:04:47;;;;;;;;;;;12.80;75.90;;;;;;4988676;28;20365;-76
2023/12/08 14:07:12;;;;;;;;;;;12.80;75.90;;;;;;4985524;28;20085;-78
2023/12/08 14:09:38;;;;;;;;;;;12.80;75.90;;;;;;4976858;28;19949;-77
2023/12/08 14:12:03;;;;;;;;;;;12.80;75.90;;;;;;4993743;28;19906;-77
2023/12/08 14:14:29;;;;;;;;;;;12.80;75.90;;;;;;4976652;28;19933;-77
2023/12/08 14:16:54;;;;;;;;;;;12.80;75.90;;;;;;4976020;28;19910;-77
2023/12/08 14:19:19;;;;;;;;;;;12.80;75.90;;;;;;4976319;28;19906;-76
2023/12/08 14:21:45;;;;;;;;;;;12.80;75.90;;;;;;4976364;28;19920;-77
2023/12/08 14:24:10;;;;;;;;;;;12.80;75.90;;;;;;4976052;28;19906;-76
2023/12/08 14:26:36;;;;;;;;;;;12.80;76.00;;;;;;4998219;28;19914;-77
2023/12/08 14:29:01;;;;;;;;;;;12.80;76.00;;;;;;4975323;28;19941;-76
2023/12/08 14:31:27;;;;;;;;;;;12.80;76.00;;;;;;4975207;28;20259;-76
2023/12/08 14:33:52;;;;;;;;;;;12.80;76.00;;;;;;4990952;28;19910;-75
2023/12/08 14:36:18;;;;;;;;;;;12.80;76.00;;;;;;4988725;28;19914;-75
2023/12/08 14:38:43;;;;;;;;;;;12.80;76.00;;;;;;4974968;28;19918;-79
2023/12/08 14:41:08;;;;;;;;;;;12.80;76.50;;;;;;4971560;28;19906;-76
2023/12/08 14:43:34;;;;;;;;;;;12.80;76.00;;;;;;4972371;28;19906;-76
2023/12/08 14:45:59;;;;;;;;;;;12.80;76.00;;;;;;4973753;28;19994;-78
2023/12/08 14:48:25;;;;;;;;;;;12.80;76.00;;;;;;4972190;28;20398;-76
2023/12/08 14:50:52;;;;;;;;;;;12.80;76.10;;;;;;4973593;28;19906;-76
2023/12/08 14:53:19;;;;;;;;;;;12.80;76.10;;;;;;5004710;28;20359;-76
2023/12/08 14:55:44;;;;;;;;;;;12.80;76.10;;;;;;4973417;28;20389;-76
2023/12/08 14:58:09;;;;;;;;;;;12.80;76.10;;;;;;4974020;28;19906;-77
2023/12/08 15:00:35;;;;;;;;;;;12.80;76.10;;;;;;5005186;28;19995;-76
2023/12/08 15:03:00;;;;;;;;;;;12.80;76.10;;;;;;4972606;28;19906;-77
2023/12/08 15:05:26;;;;;;;;;;;12.80;76.10;;;;;;4972746;28;19906;-77
2023/12/08 15:07:51;;;;;;;;;;;12.80;76.10;;;;;;5005945;28;19968;-77
2023/12/08 15:10:17;;;;;;;;;;;12.80;76.10;;;;;;4975218;28;19906;-77
2023/12/08 15:12:42;;;;;;;;;;;12.80;76.10;;;;;;4971910;28;19949;-77
2023/12/08 15:15:08;;;;;;;;;;;12.80;76.10;;;;;;4993420;28;19910;-77
2023/12/08 15:17:34;;;;;;;;;;;12.80;76.10;;;;;;4974870;28;19914;-77